sensor_id;sensor_type;location;lat;lon;timestamp;P1;durP1;ratioP1;P2;durP2;ratioP2
66741;SDS011;53654;54.152;19.432;2023-04-25T00:02:12;10.30;;;9.50;;
66741;SDS011;53654;54.152;19.432;2023-04-25T00:04:41;10.40;;;9.60;;
66741;SDS011;53654;54.152;19.432;2023-04-25T00:07:10;10.80;;;10.00;;
66741;SDS011;53654;54.152;19.432;2023-04-25T00:09:38;11.30;;;10.40;;
66741;SDS011;53654;54.152;19.432;2023-04-25T00:12:06;11.80;;;11.00;;
66741;SDS011;53654;54.152;19.432;2023-04-25T00:14:34;11.60;;;10.80;;
66741;SDS011;53654;54.152;19.432;2023-04-25T00:17:03;13.10;;;12.10;;
66741;SDS011;53654;54.152;19.432;2023-04-25T00:19:32;13.00;;;12.00;;
66741;SDS011;53654;54.152;19.432;2023-04-25T00:22:00;13.20;;;12.20;;
66741;SDS011;53654;54.152;19.432;2023-04-25T00:24:28;13.50;;;12.40;;
66741;SDS011;53654;54.152;19.432;2023-04-25T00:26:56;12.90;;;12.00;;
66741;SDS011;53654;54.152;19.432;2023-04-25T00:29:24;13.60;;;12.50;;
66741;SDS011;53654;54.152;19.432;2023-04-25T00:31:52;13.60;;;12.70;;
66741;SDS011;53654;54.152;19.432;2023-04-25T00:34:20;13.10;;;12.10;;
66741;SDS011;53654;54.152;19.432;2023-04-25T00:36:48;14.10;;;13.00;;
66741;SDS011;53654;54.152;19.432;2023-04-25T00:39:16;13.40;;;12.30;;
66741;SDS011;53654;54.152;19.432;2023-04-25T00:41:44;14.90;;;13.50;;
66741;SDS011;53654;54.152;19.432;2023-04-25T00:44:13;14.90;;;13.50;;
66741;SDS011;53654;54.152;19.432;2023-04-25T00:46:44;13.40;;;12.20;;
66741;SDS011;53654;54.152;19.432;2023-04-25T00:49:15;13.00;;;11.90;;
66741;SDS011;53654;54.152;19.432;2023-04-25T00:51:44;11.70;;;10.70;;
66741;SDS011;53654;54.152;19.432;2023-04-25T00:54:12;11.40;;;10.50;;
66741;SDS011;53654;54.152;19.432;2023-04-25T00:56:41;14.60;;;13.20;;
66741;SDS011;53654;54.152;19.432;2023-04-25T00:59:09;27.40;;;19.80;;
66741;SDS011;53654;54.152;19.432;2023-04-25T01:01:39;32.40;;;22.70;;
66741;SDS011;53654;54.152;19.432;2023-04-25T01:04:07;32.90;;;24.10;;
66741;SDS011;53654;54.152;19.432;2023-04-25T01:06:36;25.00;;;19.70;;
66741;SDS011;53654;54.152;19.432;2023-04-25T01:09:04;20.70;;;16.80;;
66741;SDS011;53654;54.152;19.432;2023-04-25T01:11:33;16.00;;;14.30;;
66741;SDS011;53654;54.152;19.432;2023-04-25T01:14:01;14.10;;;12.80;;
66741;SDS011;53654;54.152;19.432;2023-04-25T01:16:30;12.00;;;11.00;;
66741;SDS011;53654;54.152;19.432;2023-04-25T01:18:59;11.90;;;11.00;;
66741;SDS011;53654;54.152;19.432;2023-04-25T01:21:27;11.40;;;10.60;;
66741;SDS011;53654;54.152;19.432;2023-04-25T01:23:57;11.10;;;10.20;;
66741;SDS011;53654;54.152;19.432;2023-04-25T01:26:26;11.70;;;10.70;;
66741;SDS011;53654;54.152;19.432;2023-04-25T01:28:54;11.40;;;10.50;;
66741;SDS011;53654;54.152;19.432;2023-04-25T01:31:22;12.10;;;11.20;;
66741;SDS011;53654;54.152;19.432;2023-04-25T01:33:51;12.20;;;11.30;;
66741;SDS011;53654;54.152;19.432;2023-04-25T01:36:21;12.90;;;11.90;;
66741;SDS011;53654;54.152;19.432;2023-04-25T01:38:49;12.80;;;11.80;;
66741;SDS011;53654;54.152;19.432;2023-04-25T01:41:18;13.50;;;12.50;;
66741;SDS011;53654;54.152;19.432;2023-04-25T01:43:46;13.10;;;12.20;;
66741;SDS011;53654;54.152;19.432;2023-04-25T01:46:16;14.30;;;13.20;;
66741;SDS011;53654;54.152;19.432;2023-04-25T01:48:44;16.20;;;14.90;;
66741;SDS011;53654;54.152;19.432;2023-04-25T01:51:13;16.00;;;14.60;;
66741;SDS011;53654;54.152;19.432;2023-04-25T01:53:41;14.90;;;13.80;;
66741;SDS011;53654;54.152;19.432;2023-04-25T01:56:11;13.50;;;12.40;;
66741;SDS011;53654;54.152;19.432;2023-04-25T01:58:39;13.60;;;12.60;;
66741;SDS011;53654;54.152;19.432;2023-04-25T02:01:27;14.10;;;12.90;;
66741;SDS011;53654;54.152;19.432;2023-04-25T02:04:06;13.20;;;12.20;;
66741;SDS011;53654;54.152;19.432;2023-04-25T02:06:36;13.00;;;12.00;;
66741;SDS011;53654;54.152;19.432;2023-04-25T02:09:04;13.40;;;12.40;;
66741;SDS011;53654;54.152;19.432;2023-04-25T02:11:32;13.70;;;12.60;;
66741;SDS011;53654;54.152;19.432;2023-04-25T02:14:19;13.10;;;12.10;;
66741;SDS011;53654;54.152;19.432;2023-04-25T02:16:54;13.60;;;12.60;;
66741;SDS011;53654;54.152;19.432;2023-04-25T02:19:23;13.40;;;12.40;;
66741;SDS011;53654;54.152;19.432;2023-04-25T02:21:51;13.80;;;12.80;;
66741;SDS011;53654;54.152;19.432;2023-04-25T02:24:19;13.60;;;12.50;;
66741;SDS011;53654;54.152;19.432;2023-04-25T02:26:47;14.40;;;13.30;;
66741;SDS011;53654;54.152;19.432;2023-04-25T02:29:16;13.70;;;12.70;;
66741;SDS011;53654;54.152;19.432;2023-04-25T02:31:45;13.60;;;12.60;;
66741;SDS011;53654;54.152;19.432;2023-04-25T02:34:13;14.20;;;13.20;;
66741;SDS011;53654;54.152;19.432;2023-04-25T02:36:41;14.60;;;13.40;;
66741;SDS011;53654;54.152;19.432;2023-04-25T02:39:09;14.10;;;13.00;;
66741;SDS011;53654;54.152;19.432;2023-04-25T02:41:37;15.00;;;13.90;;
66741;SDS011;53654;54.152;19.432;2023-04-25T02:44:05;16.00;;;14.70;;
66741;SDS011;53654;54.152;19.432;2023-04-25T02:46:33;15.30;;;14.20;;
66741;SDS011;53654;54.152;19.432;2023-04-25T02:49:06;16.30;;;15.10;;
66741;SDS011;53654;54.152;19.432;2023-04-25T02:51:35;16.00;;;14.80;;
66741;SDS011;53654;54.152;19.432;2023-04-25T02:54:03;14.60;;;13.60;;
66741;SDS011;53654;54.152;19.432;2023-04-25T02:56:34;14.70;;;13.60;;
66741;SDS011;53654;54.152;19.432;2023-04-25T02:59:02;13.80;;;12.80;;
66741;SDS011;53654;54.152;19.432;2023-04-25T03:01:31;14.20;;;13.10;;
66741;SDS011;53654;54.152;19.432;2023-04-25T03:03:59;13.20;;;12.30;;
66741;SDS011;53654;54.152;19.432;2023-04-25T03:06:27;13.60;;;12.50;;
66741;SDS011;53654;54.152;19.432;2023-04-25T03:08:55;13.30;;;12.30;;
66741;SDS011;53654;54.152;19.432;2023-04-25T03:11:24;13.70;;;12.70;;
66741;SDS011;53654;54.152;19.432;2023-04-25T03:13:53;13.80;;;12.70;;
66741;SDS011;53654;54.152;19.432;2023-04-25T03:16:21;14.10;;;13.00;;
66741;SDS011;53654;54.152;19.432;2023-04-25T03:18:50;13.60;;;12.60;;
66741;SDS011;53654;54.152;19.432;2023-04-25T03:21:18;13.70;;;12.60;;
66741;SDS011;53654;54.152;19.432;2023-04-25T03:23:46;13.70;;;12.60;;
66741;SDS011;53654;54.152;19.432;2023-04-25T03:26:14;14.60;;;13.50;;
66741;SDS011;53654;54.152;19.432;2023-04-25T03:28:43;14.70;;;13.60;;
66741;SDS011;53654;54.152;19.432;2023-04-25T03:31:12;13.50;;;12.50;;
66741;SDS011;53654;54.152;19.432;2023-04-25T03:33:40;13.40;;;12.40;;
66741;SDS011;53654;54.152;19.432;2023-04-25T03:36:08;14.00;;;12.70;;
66741;SDS011;53654;54.152;19.432;2023-04-25T03:38:37;13.30;;;12.30;;
66741;SDS011;53654;54.152;19.432;2023-04-25T03:41:06;13.30;;;12.30;;
66741;SDS011;53654;54.152;19.432;2023-04-25T03:43:40;13.50;;;12.50;;
66741;SDS011;53654;54.152;19.432;2023-04-25T03:46:11;13.50;;;12.50;;
66741;SDS011;53654;54.152;19.432;2023-04-25T03:48:39;13.90;;;12.90;;
66741;SDS011;53654;54.152;19.432;2023-04-25T03:51:08;14.40;;;13.30;;
66741;SDS011;53654;54.152;19.432;2023-04-25T03:53:38;14.20;;;13.10;;
66741;SDS011;53654;54.152;19.432;2023-04-25T03:56:15;14.70;;;13.60;;
66741;SDS011;53654;54.152;19.432;2023-04-25T03:58:44;18.00;;;16.70;;
66741;SDS011;53654;54.152;19.432;2023-04-25T04:01:13;21.20;;;19.60;;
66741;SDS011;53654;54.152;19.432;2023-04-25T04:03:42;21.10;;;19.60;;
66741;SDS011;53654;54.152;19.432;2023-04-25T04:06:10;19.80;;;18.40;;
66741;SDS011;53654;54.152;19.432;2023-04-25T04:08:43;19.70;;;18.20;;
66741;SDS011;53654;54.152;19.432;2023-04-25T04:11:11;19.10;;;17.70;;
66741;SDS011;53654;54.152;19.432;2023-04-25T04:13:39;19.30;;;18.00;;
66741;SDS011;53654;54.152;19.432;2023-04-25T04:16:08;17.60;;;16.40;;
66741;SDS011;53654;54.152;19.432;2023-04-25T04:18:36;17.90;;;16.60;;
66741;SDS011;53654;54.152;19.432;2023-04-25T04:21:04;15.10;;;14.10;;
66741;SDS011;53654;54.152;19.432;2023-04-25T04:23:35;15.00;;;13.90;;
66741;SDS011;53654;54.152;19.432;2023-04-25T04:26:06;13.60;;;12.60;;
66741;SDS011;53654;54.152;19.432;2023-04-25T04:28:59;14.80;;;13.60;;
66741;SDS011;53654;54.152;19.432;2023-04-25T04:31:38;15.60;;;14.50;;
66741;SDS011;53654;54.152;19.432;2023-04-25T04:34:06;16.60;;;15.30;;
66741;SDS011;53654;54.152;19.432;2023-04-25T04:36:35;15.50;;;14.30;;
66741;SDS011;53654;54.152;19.432;2023-04-25T04:39:04;17.10;;;15.80;;
66741;SDS011;53654;54.152;19.432;2023-04-25T04:41:43;19.10;;;17.80;;
66741;SDS011;53654;54.152;19.432;2023-04-25T04:44:15;19.30;;;17.90;;
66741;SDS011;53654;54.152;19.432;2023-04-25T04:47:04;19.20;;;17.90;;
66741;SDS011;53654;54.152;19.432;2023-04-25T04:49:48;17.00;;;15.80;;
66741;SDS011;53654;54.152;19.432;2023-04-25T04:52:37;16.00;;;14.80;;
66741;SDS011;53654;54.152;19.432;2023-04-25T04:55:32;13.90;;;12.90;;
66741;SDS011;53654;54.152;19.432;2023-04-25T04:58:08;13.70;;;12.60;;
66741;SDS011;53654;54.152;19.432;2023-04-25T05:00:48;14.10;;;13.10;;
66741;SDS011;53654;54.152;19.432;2023-04-25T05:03:35;11.90;;;11.10;;
66741;SDS011;53654;54.152;19.432;2023-04-25T05:06:26;11.80;;;11.00;;
66741;SDS011;53654;54.152;19.432;2023-04-25T05:09:15;12.00;;;11.10;;
66741;SDS011;53654;54.152;19.432;2023-04-25T05:12:16;12.50;;;11.60;;
66741;SDS011;53654;54.152;19.432;2023-04-25T05:14:52;12.70;;;11.80;;
66741;SDS011;53654;54.152;19.432;2023-04-25T05:17:30;13.20;;;12.20;;
66741;SDS011;53654;54.152;19.432;2023-04-25T05:20:18;14.30;;;13.20;;
66741;SDS011;53654;54.152;19.432;2023-04-25T05:23:14;15.20;;;14.00;;
66741;SDS011;53654;54.152;19.432;2023-04-25T05:26:12;14.30;;;13.10;;
66741;SDS011;53654;54.152;19.432;2023-04-25T05:29:04;15.80;;;14.70;;
66741;SDS011;53654;54.152;19.432;2023-04-25T05:32:02;15.80;;;14.60;;
66741;SDS011;53654;54.152;19.432;2023-04-25T05:34:30;15.50;;;14.20;;
66741;SDS011;53654;54.152;19.432;2023-04-25T05:37:05;15.00;;;13.80;;
66741;SDS011;53654;54.152;19.432;2023-04-25T05:39:39;15.10;;;13.80;;
66741;SDS011;53654;54.152;19.432;2023-04-25T05:42:13;15.30;;;14.00;;
66741;SDS011;53654;54.152;19.432;2023-04-25T05:45:00;14.60;;;13.50;;
66741;SDS011;53654;54.152;19.432;2023-04-25T05:48:00;13.40;;;12.40;;
66741;SDS011;53654;54.152;19.432;2023-04-25T05:50:47;11.60;;;10.80;;
66741;SDS011;53654;54.152;19.432;2023-04-25T05:53:37;9.40;;;8.70;;
66741;SDS011;53654;54.152;19.432;2023-04-25T05:56:06;9.70;;;9.00;;
66741;SDS011;53654;54.152;19.432;2023-04-25T05:58:34;9.30;;;8.60;;
66741;SDS011;53654;54.152;19.432;2023-04-25T06:01:02;8.90;;;8.30;;
66741;SDS011;53654;54.152;19.432;2023-04-25T06:03:31;8.50;;;7.90;;
66741;SDS011;53654;54.152;19.432;2023-04-25T06:05:59;9.60;;;8.90;;
66741;SDS011;53654;54.152;19.432;2023-04-25T06:08:27;9.10;;;8.40;;
66741;SDS011;53654;54.152;19.432;2023-04-25T06:10:55;7.60;;;7.10;;
66741;SDS011;53654;54.152;19.432;2023-04-25T06:13:23;11.20;;;10.40;;
66741;SDS011;53654;54.152;19.432;2023-04-25T06:15:51;8.50;;;7.90;;
66741;SDS011;53654;54.152;19.432;2023-04-25T06:18:20;7.20;;;6.70;;
66741;SDS011;53654;54.152;19.432;2023-04-25T06:20:49;6.70;;;6.30;;
66741;SDS011;53654;54.152;19.432;2023-04-25T06:23:18;6.20;;;5.80;;
66741;SDS011;53654;54.152;19.432;2023-04-25T06:25:51;6.40;;;5.90;;
66741;SDS011;53654;54.152;19.432;2023-04-25T06:28:19;6.30;;;5.90;;
66741;SDS011;53654;54.152;19.432;2023-04-25T06:30:50;6.60;;;6.10;;
66741;SDS011;53654;54.152;19.432;2023-04-25T06:33:19;7.20;;;6.70;;
66741;SDS011;53654;54.152;19.432;2023-04-25T06:35:49;8.10;;;7.50;;
66741;SDS011;53654;54.152;19.432;2023-04-25T06:38:19;7.60;;;7.00;;
66741;SDS011;53654;54.152;19.432;2023-04-25T06:40:50;7.60;;;7.00;;
66741;SDS011;53654;54.152;19.432;2023-04-25T06:43:19;7.70;;;7.20;;
66741;SDS011;53654;54.152;19.432;2023-04-25T06:45:58;7.20;;;6.70;;
66741;SDS011;53654;54.152;19.432;2023-04-25T06:48:28;7.50;;;7.00;;
66741;SDS011;53654;54.152;19.432;2023-04-25T06:50:58;8.00;;;7.40;;
66741;SDS011;53654;54.152;19.432;2023-04-25T06:53:26;7.40;;;6.80;;
66741;SDS011;53654;54.152;19.432;2023-04-25T06:55:58;7.40;;;6.90;;
66741;SDS011;53654;54.152;19.432;2023-04-25T06:58:34;8.10;;;7.50;;
66741;SDS011;53654;54.152;19.432;2023-04-25T07:01:15;7.60;;;7.10;;
66741;SDS011;53654;54.152;19.432;2023-04-25T07:03:43;7.50;;;7.00;;
66741;SDS011;53654;54.152;19.432;2023-04-25T07:06:15;7.90;;;7.30;;
66741;SDS011;53654;54.152;19.432;2023-04-25T07:08:43;8.30;;;7.70;;
66741;SDS011;53654;54.152;19.432;2023-04-25T07:11:12;8.20;;;7.50;;
66741;SDS011;53654;54.152;19.432;2023-04-25T07:13:40;8.90;;;8.20;;
66741;SDS011;53654;54.152;19.432;2023-04-25T07:16:08;8.30;;;7.70;;
66741;SDS011;53654;54.152;19.432;2023-04-25T07:18:37;8.10;;;7.50;;
66741;SDS011;53654;54.152;19.432;2023-04-25T07:21:05;8.10;;;7.50;;
66741;SDS011;53654;54.152;19.432;2023-04-25T07:23:33;8.30;;;7.70;;
66741;SDS011;53654;54.152;19.432;2023-04-25T07:26:05;8.50;;;7.90;;
66741;SDS011;53654;54.152;19.432;2023-04-25T07:28:33;9.00;;;8.20;;
66741;SDS011;53654;54.152;19.432;2023-04-25T07:31:02;7.90;;;7.30;;
66741;SDS011;53654;54.152;19.432;2023-04-25T07:33:32;8.50;;;7.90;;
66741;SDS011;53654;54.152;19.432;2023-04-25T07:36:01;8.80;;;8.10;;
66741;SDS011;53654;54.152;19.432;2023-04-25T07:38:29;9.10;;;8.40;;
66741;SDS011;53654;54.152;19.432;2023-04-25T07:40:57;9.00;;;8.30;;
66741;SDS011;53654;54.152;19.432;2023-04-25T07:43:25;10.10;;;9.20;;
66741;SDS011;53654;54.152;19.432;2023-04-25T07:45:57;8.60;;;8.00;;
66741;SDS011;53654;54.152;19.432;2023-04-25T07:48:27;9.10;;;8.40;;
66741;SDS011;53654;54.152;19.432;2023-04-25T07:50:56;8.70;;;8.10;;
66741;SDS011;53654;54.152;19.432;2023-04-25T07:53:23;8.70;;;8.00;;
66741;SDS011;53654;54.152;19.432;2023-04-25T07:55:54;7.90;;;7.40;;
66741;SDS011;53654;54.152;19.432;2023-04-25T07:58:22;8.70;;;8.00;;
66741;SDS011;53654;54.152;19.432;2023-04-25T08:00:54;9.10;;;8.40;;
66741;SDS011;53654;54.152;19.432;2023-04-25T08:03:42;8.70;;;8.00;;
66741;SDS011;53654;54.152;19.432;2023-04-25T08:06:16;8.10;;;7.50;;
66741;SDS011;53654;54.152;19.432;2023-04-25T08:09:02;7.70;;;7.10;;
66741;SDS011;53654;54.152;19.432;2023-04-25T08:11:37;8.30;;;7.70;;
66741;SDS011;53654;54.152;19.432;2023-04-25T08:14:06;8.40;;;7.70;;
66741;SDS011;53654;54.152;19.432;2023-04-25T08:16:34;8.90;;;8.20;;
66741;SDS011;53654;54.152;19.432;2023-04-25T08:19:03;8.30;;;7.60;;
66741;SDS011;53654;54.152;19.432;2023-04-25T08:21:31;8.50;;;7.80;;
66741;SDS011;53654;54.152;19.432;2023-04-25T08:24:02;8.60;;;7.90;;
66741;SDS011;53654;54.152;19.432;2023-04-25T08:26:34;8.40;;;7.60;;
66741;SDS011;53654;54.152;19.432;2023-04-25T08:29:02;9.70;;;8.90;;
66741;SDS011;53654;54.152;19.432;2023-04-25T08:31:30;9.70;;;8.80;;
66741;SDS011;53654;54.152;19.432;2023-04-25T08:34:00;9.10;;;8.40;;
66741;SDS011;53654;54.152;19.432;2023-04-25T08:36:51;8.70;;;8.00;;
66741;SDS011;53654;54.152;19.432;2023-04-25T08:39:40;8.10;;;7.50;;
66741;SDS011;53654;54.152;19.432;2023-04-25T08:42:21;8.60;;;7.90;;
66741;SDS011;53654;54.152;19.432;2023-04-25T08:44:50;9.40;;;8.70;;
66741;SDS011;53654;54.152;19.432;2023-04-25T08:47:22;9.60;;;8.70;;
66741;SDS011;53654;54.152;19.432;2023-04-25T08:49:55;9.20;;;8.40;;
66741;SDS011;53654;54.152;19.432;2023-04-25T08:52:24;9.80;;;8.80;;
66741;SDS011;53654;54.152;19.432;2023-04-25T08:54:58;7.80;;;7.10;;
66741;SDS011;53654;54.152;19.432;2023-04-25T08:57:30;8.20;;;7.40;;
66741;SDS011;53654;54.152;19.432;2023-04-25T08:59:59;8.60;;;7.90;;
66741;SDS011;53654;54.152;19.432;2023-04-25T09:02:29;8.30;;;7.60;;
66741;SDS011;53654;54.152;19.432;2023-04-25T09:04:58;7.90;;;7.20;;
66741;SDS011;53654;54.152;19.432;2023-04-25T09:07:29;8.20;;;7.40;;
66741;SDS011;53654;54.152;19.432;2023-04-25T09:09:58;8.20;;;7.60;;
66741;SDS011;53654;54.152;19.432;2023-04-25T09:12:29;8.10;;;7.30;;
66741;SDS011;53654;54.152;19.432;2023-04-25T09:15:11;7.50;;;6.90;;
66741;SDS011;53654;54.152;19.432;2023-04-25T09:18:04;7.90;;;7.10;;
66741;SDS011;53654;54.152;19.432;2023-04-25T09:20:40;7.60;;;7.00;;
66741;SDS011;53654;54.152;19.432;2023-04-25T09:23:13;9.10;;;8.40;;
66741;SDS011;53654;54.152;19.432;2023-04-25T09:25:42;10.70;;;9.70;;
66741;SDS011;53654;54.152;19.432;2023-04-25T09:28:11;10.80;;;9.90;;
66741;SDS011;53654;54.152;19.432;2023-04-25T09:30:39;10.90;;;9.90;;
66741;SDS011;53654;54.152;19.432;2023-04-25T09:33:28;10.10;;;9.30;;
66741;SDS011;53654;54.152;19.432;2023-04-25T09:36:05;9.50;;;8.70;;
66741;SDS011;53654;54.152;19.432;2023-04-25T09:38:58;8.70;;;8.00;;
66741;SDS011;53654;54.152;19.432;2023-04-25T09:41:29;9.00;;;8.20;;
66741;SDS011;53654;54.152;19.432;2023-04-25T09:44:00;10.80;;;9.80;;
66741;SDS011;53654;54.152;19.432;2023-04-25T09:46:35;7.80;;;7.10;;
66741;SDS011;53654;54.152;19.432;2023-04-25T09:49:11;7.30;;;6.60;;
66741;SDS011;53654;54.152;19.432;2023-04-25T09:51:57;7.90;;;7.30;;
66741;SDS011;53654;54.152;19.432;2023-04-25T09:54:30;8.50;;;7.70;;
66741;SDS011;53654;54.152;19.432;2023-04-25T09:57:24;13.10;;;11.90;;
66741;SDS011;53654;54.152;19.432;2023-04-25T09:59:54;17.40;;;15.90;;
66741;SDS011;53654;54.152;19.432;2023-04-25T10:02:25;18.70;;;17.10;;
66741;SDS011;53654;54.152;19.432;2023-04-25T10:04:57;17.50;;;15.90;;
66741;SDS011;53654;54.152;19.432;2023-04-25T10:07:30;11.90;;;10.90;;
66741;SDS011;53654;54.152;19.432;2023-04-25T10:10:02;11.60;;;10.60;;
66741;SDS011;53654;54.152;19.432;2023-04-25T10:12:32;10.90;;;10.00;;
66741;SDS011;53654;54.152;19.432;2023-04-25T10:15:02;10.60;;;9.70;;
66741;SDS011;53654;54.152;19.432;2023-04-25T10:17:32;13.50;;;12.20;;
66741;SDS011;53654;54.152;19.432;2023-04-25T10:20:01;11.70;;;10.60;;
66741;SDS011;53654;54.152;19.432;2023-04-25T10:22:33;10.10;;;9.30;;
66741;SDS011;53654;54.152;19.432;2023-04-25T10:25:03;10.10;;;9.20;;
66741;SDS011;53654;54.152;19.432;2023-04-25T10:27:33;8.60;;;8.00;;
66741;SDS011;53654;54.152;19.432;2023-04-25T10:32:34;10.30;;;9.40;;
66741;SDS011;53654;54.152;19.432;2023-04-25T10:35:10;10.80;;;9.90;;
66741;SDS011;53654;54.152;19.432;2023-04-25T10:37:56;13.20;;;12.20;;
66741;SDS011;53654;54.152;19.432;2023-04-25T10:40:24;14.00;;;12.80;;
66741;SDS011;53654;54.152;19.432;2023-04-25T10:42:53;18.50;;;16.90;;
66741;SDS011;53654;54.152;19.432;2023-04-25T10:45:24;20.70;;;18.90;;
66741;SDS011;53654;54.152;19.432;2023-04-25T10:47:53;20.30;;;18.70;;
66741;SDS011;53654;54.152;19.432;2023-04-25T10:50:22;22.70;;;20.50;;
66741;SDS011;53654;54.152;19.432;2023-04-25T10:53:15;30.20;;;27.30;;
66741;SDS011;53654;54.152;19.432;2023-04-25T10:55:49;22.90;;;20.90;;
66741;SDS011;53654;54.152;19.432;2023-04-25T10:58:21;22.10;;;20.10;;
66741;SDS011;53654;54.152;19.432;2023-04-25T11:00:50;19.20;;;17.40;;
66741;SDS011;53654;54.152;19.432;2023-04-25T11:03:24;13.90;;;12.80;;
66741;SDS011;53654;54.152;19.432;2023-04-25T11:05:53;10.00;;;9.10;;
66741;SDS011;53654;54.152;19.432;2023-04-25T11:08:47;9.10;;;8.20;;
66741;SDS011;53654;54.152;19.432;2023-04-25T11:11:17;7.70;;;6.90;;
66741;SDS011;53654;54.152;19.432;2023-04-25T11:13:49;6.10;;;5.60;;
66741;SDS011;53654;54.152;19.432;2023-04-25T11:16:18;6.90;;;6.40;;
66741;SDS011;53654;54.152;19.432;2023-04-25T11:19:06;7.00;;;6.40;;
66741;SDS011;53654;54.152;19.432;2023-04-25T11:21:33;6.10;;;5.60;;
66741;SDS011;53654;54.152;19.432;2023-04-25T11:24:02;5.90;;;5.40;;
66741;SDS011;53654;54.152;19.432;2023-04-25T11:26:30;6.40;;;5.90;;
66741;SDS011;53654;54.152;19.432;2023-04-25T11:28:58;7.20;;;6.60;;
66741;SDS011;53654;54.152;19.432;2023-04-25T11:31:28;6.40;;;5.90;;
66741;SDS011;53654;54.152;19.432;2023-04-25T11:33:57;7.00;;;6.40;;
66741;SDS011;53654;54.152;19.432;2023-04-25T11:36:25;6.80;;;6.10;;
66741;SDS011;53654;54.152;19.432;2023-04-25T11:38:54;6.80;;;6.20;;
66741;SDS011;53654;54.152;19.432;2023-04-25T11:41:22;6.50;;;5.90;;
66741;SDS011;53654;54.152;19.432;2023-04-25T11:43:52;7.30;;;6.70;;
66741;SDS011;53654;54.152;19.432;2023-04-25T11:46:22;6.50;;;6.00;;
66741;SDS011;53654;54.152;19.432;2023-04-25T11:48:50;6.60;;;6.00;;
66741;SDS011;53654;54.152;19.432;2023-04-25T11:51:19;6.80;;;6.10;;
66741;SDS011;53654;54.152;19.432;2023-04-25T11:53:47;6.00;;;5.50;;
66741;SDS011;53654;54.152;19.432;2023-04-25T11:56:16;6.00;;;5.50;;
66741;SDS011;53654;54.152;19.432;2023-04-25T11:58:54;6.40;;;5.90;;
66741;SDS011;53654;54.152;19.432;2023-04-25T12:01:30;6.60;;;6.00;;
66741;SDS011;53654;54.152;19.432;2023-04-25T12:04:19;5.70;;;5.20;;
66741;SDS011;53654;54.152;19.432;2023-04-25T12:06:52;5.00;;;4.70;;
66741;SDS011;53654;54.152;19.432;2023-04-25T12:09:28;5.30;;;4.90;;
66741;SDS011;53654;54.152;19.432;2023-04-25T12:11:59;5.50;;;5.10;;
66741;SDS011;53654;54.152;19.432;2023-04-25T12:14:32;6.00;;;5.50;;
66741;SDS011;53654;54.152;19.432;2023-04-25T12:17:02;5.20;;;4.80;;
66741;SDS011;53654;54.152;19.432;2023-04-25T12:19:33;4.70;;;4.30;;
66741;SDS011;53654;54.152;19.432;2023-04-25T12:22:03;5.00;;;4.60;;
66741;SDS011;53654;54.152;19.432;2023-04-25T12:24:47;5.60;;;5.10;;
66741;SDS011;53654;54.152;19.432;2023-04-25T12:27:16;5.40;;;4.90;;
66741;SDS011;53654;54.152;19.432;2023-04-25T12:29:50;6.10;;;5.50;;
66741;SDS011;53654;54.152;19.432;2023-04-25T12:32:19;5.80;;;5.40;;
66741;SDS011;53654;54.152;19.432;2023-04-25T12:34:48;5.20;;;4.70;;
66741;SDS011;53654;54.152;19.432;2023-04-25T12:37:16;5.80;;;5.30;;
66741;SDS011;53654;54.152;19.432;2023-04-25T12:39:44;6.20;;;5.60;;
66741;SDS011;53654;54.152;19.432;2023-04-25T12:42:12;4.70;;;4.30;;
66741;SDS011;53654;54.152;19.432;2023-04-25T12:44:41;5.10;;;4.70;;
66741;SDS011;53654;54.152;19.432;2023-04-25T12:47:09;5.20;;;4.80;;
66741;SDS011;53654;54.152;19.432;2023-04-25T12:49:38;4.90;;;4.50;;
66741;SDS011;53654;54.152;19.432;2023-04-25T12:52:06;5.50;;;5.10;;
66741;SDS011;53654;54.152;19.432;2023-04-25T12:54:34;5.30;;;4.80;;
66741;SDS011;53654;54.152;19.432;2023-04-25T12:57:02;5.30;;;4.80;;
66741;SDS011;53654;54.152;19.432;2023-04-25T12:59:31;5.50;;;5.00;;
66741;SDS011;53654;54.152;19.432;2023-04-25T13:01:59;5.00;;;4.50;;
66741;SDS011;53654;54.152;19.432;2023-04-25T13:04:28;4.10;;;3.70;;
66741;SDS011;53654;54.152;19.432;2023-04-25T13:06:56;4.20;;;3.90;;
66741;SDS011;53654;54.152;19.432;2023-04-25T13:09:24;3.80;;;3.50;;
66741;SDS011;53654;54.152;19.432;2023-04-25T13:11:52;3.90;;;3.60;;
66741;SDS011;53654;54.152;19.432;2023-04-25T13:14:24;4.10;;;3.70;;
66741;SDS011;53654;54.152;19.432;2023-04-25T13:16:52;4.00;;;3.50;;
66741;SDS011;53654;54.152;19.432;2023-04-25T13:19:22;3.30;;;3.00;;
66741;SDS011;53654;54.152;19.432;2023-04-25T13:21:50;3.80;;;3.50;;
66741;SDS011;53654;54.152;19.432;2023-04-25T13:24:18;3.70;;;3.40;;
66741;SDS011;53654;54.152;19.432;2023-04-25T13:26:46;3.60;;;3.30;;
66741;SDS011;53654;54.152;19.432;2023-04-25T13:29:14;4.40;;;3.40;;
66741;SDS011;53654;54.152;19.432;2023-04-25T13:31:42;3.60;;;3.40;;
66741;SDS011;53654;54.152;19.432;2023-04-25T13:34:10;4.20;;;3.80;;
66741;SDS011;53654;54.152;19.432;2023-04-25T13:36:40;4.20;;;3.80;;
66741;SDS011;53654;54.152;19.432;2023-04-25T13:39:08;5.30;;;3.50;;
66741;SDS011;53654;54.152;19.432;2023-04-25T13:41:36;5.60;;;3.40;;
66741;SDS011;53654;54.152;19.432;2023-04-25T13:44:04;4.40;;;3.10;;
66741;SDS011;53654;54.152;19.432;2023-04-25T13:46:32;4.20;;;2.90;;
66741;SDS011;53654;54.152;19.432;2023-04-25T13:49:14;5.30;;;2.60;;
66741;SDS011;53654;54.152;19.432;2023-04-25T13:51:42;6.80;;;2.80;;
66741;SDS011;53654;54.152;19.432;2023-04-25T13:54:10;3.80;;;2.90;;
66741;SDS011;53654;54.152;19.432;2023-04-25T13:56:38;4.20;;;3.20;;
66741;SDS011;53654;54.152;19.432;2023-04-25T13:59:10;5.40;;;2.90;;
66741;SDS011;53654;54.152;19.432;2023-04-25T14:01:38;4.50;;;2.90;;
66741;SDS011;53654;54.152;19.432;2023-04-25T14:04:07;3.50;;;2.90;;
66741;SDS011;53654;54.152;19.432;2023-04-25T14:06:36;4.20;;;3.30;;
66741;SDS011;53654;54.152;19.432;2023-04-25T14:09:04;5.80;;;3.50;;
66741;SDS011;53654;54.152;19.432;2023-04-25T14:11:34;6.60;;;3.70;;
66741;SDS011;53654;54.152;19.432;2023-04-25T14:14:02;5.40;;;3.40;;
66741;SDS011;53654;54.152;19.432;2023-04-25T14:16:31;5.70;;;3.40;;
66741;SDS011;53654;54.152;19.432;2023-04-25T14:18:59;5.40;;;3.50;;
66741;SDS011;53654;54.152;19.432;2023-04-25T14:21:28;5.30;;;3.80;;
66741;SDS011;53654;54.152;19.432;2023-04-25T14:23:56;6.40;;;3.90;;
66741;SDS011;53654;54.152;19.432;2023-04-25T14:26:24;5.00;;;3.30;;
66741;SDS011;53654;54.152;19.432;2023-04-25T14:28:53;4.30;;;3.00;;
66741;SDS011;53654;54.152;19.432;2023-04-25T14:31:21;5.60;;;3.40;;
66741;SDS011;53654;54.152;19.432;2023-04-25T14:33:49;4.60;;;3.20;;
66741;SDS011;53654;54.152;19.432;2023-04-25T14:36:18;4.80;;;3.20;;
66741;SDS011;53654;54.152;19.432;2023-04-25T14:38:46;5.10;;;3.90;;
66741;SDS011;53654;54.152;19.432;2023-04-25T14:41:14;4.70;;;3.00;;
66741;SDS011;53654;54.152;19.432;2023-04-25T14:43:43;5.90;;;3.30;;
66741;SDS011;53654;54.152;19.432;2023-04-25T14:46:12;4.10;;;3.00;;
66741;SDS011;53654;54.152;19.432;2023-04-25T14:48:41;5.80;;;3.10;;
66741;SDS011;53654;54.152;19.432;2023-04-25T14:51:10;5.60;;;3.10;;
66741;SDS011;53654;54.152;19.432;2023-04-25T14:53:39;4.20;;;2.80;;